Time;durP1;ratioP1;P1;durP2;ratioP2;P2;SDS_P1;SDS_P2;PMS_P1;PMS_P2;Temp;Humidity;BMP_temperature;BMP_pressure;BME280_temperature;BME280_humidity;BME280_pressure;Samples;Min_cycle;Max_cycle;Signal;HPM_P1;HPM_P2
2022/02/18 00:01:06;;;;;;;18.13;5.80;;;26.20;99.90;;;;;;5012495;28;20521;-64
2022/02/18 00:03:33;;;;;;;23.10;7.15;;;26.40;99.90;;;;;;5032298;28;20029;-64
2022/02/18 00:06:01;;;;;;;19.20;5.82;;;26.40;99.90;;;;;;5036959;28;20021;-64
2022/02/18 00:08:28;;;;;;;12.50;4.80;;;26.50;99.90;;;;;;5051715;28;20104;-64
2022/02/18 00:10:55;;;;;;;13.85;5.10;;;26.30;99.90;;;;;;5046995;28;20036;-64
2022/02/18 00:13:23;;;;;;;11.60;3.90;;;26.40;99.90;;;;;;5031855;28;20112;-64
2022/02/18 00:15:51;;;;;;;11.88;4.15;;;26.60;99.90;;;;;;5014350;28;20115;-64
2022/02/18 00:18:18;;;;;;;12.73;4.93;;;26.80;99.90;;;;;;5013496;28;20022;-64
2022/02/18 00:20:45;;;;;;;9.93;4.30;;;26.90;99.90;;;;;;5012425;28;20413;-64
2022/02/18 00:23:13;;;;;;;12.82;4.18;;;26.80;99.90;;;;;;5030122;28;20100;-64
2022/02/18 00:25:40;;;;;;;10.27;4.10;;;26.80;99.90;;;;;;5017081;28;20052;-64
2022/02/18 00:28:07;;;;;;;12.48;3.75;;;27.00;99.90;;;;;;5021204;28;20037;-64
2022/02/18 00:30:35;;;;;;;10.48;3.92;;;27.20;99.90;;;;;;5018578;28;20038;-64
2022/02/18 00:33:02;;;;;;;13.35;5.20;;;27.60;99.90;;;;;;5032494;28;20393;-63
2022/02/18 00:35:30;;;;;;;14.13;4.22;;;27.60;99.90;;;;;;5035467;28;20029;-63
2022/02/18 00:37:57;;;;;;;11.45;4.13;;;27.50;99.90;;;;;;5020697;28;20144;-63
2022/02/18 00:40:26;;;;;;;16.63;4.70;;;27.50;99.90;;;;;;5035685;28;20060;-63
2022/02/18 00:42:54;;;;;;;14.23;4.10;;;27.40;99.90;;;;;;5034367;28;20037;-64
2022/02/18 00:45:22;;;;;;;11.80;4.15;;;27.60;99.90;;;;;;5035682;28;20029;-63
2022/02/18 00:47:51;;;;;;;10.85;4.05;;;27.70;99.90;;;;;;5015626;28;20065;-63
2022/02/18 00:50:19;;;;;;;12.93;4.43;;;27.90;99.90;;;;;;5018125;28;20030;-64
2022/02/18 00:52:46;;;;;;;14.00;4.03;;;28.00;99.90;;;;;;5037441;28;20032;-63
2022/02/18 00:55:14;;;;;;;12.90;3.97;;;28.00;99.90;;;;;;5015345;28;20046;-64
2022/02/18 00:57:44;;;;;;;14.45;3.90;;;28.10;99.90;;;;;;5028570;28;20037;-64
2022/02/18 01:00:15;;;;;;;10.85;4.45;;;28.10;99.90;;;;;;5034620;28;20095;-64
2022/02/18 01:02:43;;;;;;;9.27;3.78;;;28.40;99.90;;;;;;5034174;28;20532;-64
2022/02/18 01:05:11;;;;;;;13.90;4.80;;;28.30;99.90;;;;;;5034853;28;20168;-63
2022/02/18 01:07:38;;;;;;;11.98;4.38;;;28.40;99.90;;;;;;5047613;28;20036;-63
2022/02/18 01:10:10;;;;;;;14.75;3.72;;;28.60;99.90;;;;;;5055164;28;20021;-64
2022/02/18 01:12:37;;;;;;;13.68;4.15;;;28.40;99.90;;;;;;5042098;28;20025;-63
2022/02/18 01:15:06;;;;;;;14.00;4.63;;;28.50;99.90;;;;;;5035174;28;20018;-64
2022/02/18 01:17:34;;;;;;;13.30;3.78;;;28.70;99.90;;;;;;5018011;28;20037;-63
2022/02/18 01:20:02;;;;;;;11.38;4.20;;;28.80;99.90;;;;;;5034561;28;20041;-63
2022/02/18 01:22:29;;;;;;;12.82;3.95;;;29.00;99.90;;;;;;5033743;28;20033;-63
2022/02/18 01:24:57;;;;;;;17.17;4.65;;;28.80;99.90;;;;;;5029758;28;20160;-64
2022/02/18 01:27:24;;;;;;;16.42;4.28;;;28.80;99.90;;;;;;5040875;28;20108;-64
2022/02/18 01:29:51;;;;;;;13.85;4.07;;;28.80;99.90;;;;;;5016925;28;20025;-63
2022/02/18 01:32:19;;;;;;;11.73;4.28;;;28.70;99.90;;;;;;5034976;28;20108;-63
2022/02/18 01:34:46;;;;;;;20.23;4.57;;;28.80;99.90;;;;;;5034026;28;20029;-63
2022/02/18 01:37:13;;;;;;;13.60;4.60;;;28.70;99.90;;;;;;5037371;28;20485;-64
2022/02/18 01:39:40;;;;;;;17.02;4.53;;;29.00;99.90;;;;;;5033611;28;20026;-64
2022/02/18 01:42:08;;;;;;;13.00;4.30;;;28.90;99.90;;;;;;5035074;28;20374;-64
2022/02/18 01:44:42;;;;;;;16.48;4.63;;;28.80;99.90;;;;;;5034660;28;20025;-64
2022/02/18 01:47:16;;;;;;;13.48;4.00;;;29.00;99.90;;;;;;5026729;28;20374;-64
2022/02/18 01:49:45;;;;;;;15.43;4.22;;;28.90;99.90;;;;;;5014295;28;20026;-64
2022/02/18 01:52:13;;;;;;;19.20;4.68;;;28.90;99.90;;;;;;5021262;28;20163;-64
2022/02/18 01:54:41;;;;;;;16.45;4.13;;;29.20;99.90;;;;;;5014171;28;20046;-64
2022/02/18 01:57:08;;;;;;;13.48;4.47;;;29.00;99.90;;;;;;5017726;28;20450;-64
2022/02/18 01:59:36;;;;;;;15.02;3.67;;;29.20;99.90;;;;;;5033483;28;20397;-64
2022/02/18 02:02:07;;;;;;;12.60;3.97;;;28.80;99.90;;;;;;5034524;28;20052;-64
2022/02/18 02:04:35;;;;;;;20.38;4.72;;;28.60;99.90;;;;;;5033650;28;20040;-64
2022/02/18 02:07:07;;;;;;;13.45;4.75;;;28.70;99.90;;;;;;5040993;28;20018;-64
2022/02/18 02:09:34;;;;;;;16.88;4.10;;;29.00;99.90;;;;;;5015656;28;20112;-64
2022/02/18 02:12:03;;;;;;;19.02;5.65;;;29.10;99.90;;;;;;5033172;28;20385;-64
2022/02/18 02:14:30;;;;;;;13.65;4.32;;;29.20;99.90;;;;;;5012085;28;20027;-64
2022/02/18 02:16:58;;;;;;;15.02;4.13;;;29.10;99.90;;;;;;5026252;28;20545;-64
2022/02/18 02:19:25;;;;;;;16.15;4.35;;;29.00;99.90;;;;;;5012513;28;20036;-65
2022/02/18 02:21:54;;;;;;;18.05;4.65;;;29.00;99.90;;;;;;5027558;28;20017;-64
2022/02/18 02:24:22;;;;;;;18.23;4.82;;;29.10;99.90;;;;;;5033703;28;20021;-64
2022/02/18 02:26:49;;;;;;;13.50;4.15;;;29.40;99.90;;;;;;5019774;28;20018;-65
2022/02/18 02:29:17;;;;;;;15.65;4.30;;;28.80;99.90;;;;;;5033342;28;20112;-64
2022/02/18 02:31:45;;;;;;;15.85;4.18;;;28.50;99.90;;;;;;5033998;28;20059;-64
2022/02/18 02:34:12;;;;;;;15.23;3.97;;;28.60;99.90;;;;;;5032745;28;20080;-64
2022/02/18 02:36:39;;;;;;;16.27;4.07;;;29.00;99.90;;;;;;5033655;28;20029;-65
2022/02/18 02:39:07;;;;;;;20.63;5.53;;;29.10;99.90;;;;;;5033268;28;20033;-64
2022/02/18 02:41:37;;;;;;;16.65;4.10;;;29.10;99.90;;;;;;5030322;28;20026;-65
2022/02/18 02:44:05;;;;;;;12.00;3.55;;;29.30;99.90;;;;;;5025275;28;20116;-64
2022/02/18 02:46:37;;;;;;;14.27;4.53;;;29.10;99.90;;;;;;5018458;28;20029;-64
2022/02/18 02:49:05;;;;;;;12.77;3.58;;;29.30;99.90;;;;;;5027525;28;20030;-64
2022/02/18 02:51:32;;;;;;;15.93;4.55;;;28.90;99.90;;;;;;5033374;28;20034;-64
2022/02/18 02:53:59;;;;;;;13.95;3.95;;;29.10;99.90;;;;;;5032164;28;20115;-64
2022/02/18 02:56:29;;;;;;;12.50;4.28;;;29.00;99.90;;;;;;5032130;28;20021;-64
2022/02/18 02:58:57;;;;;;;10.18;4.03;;;28.90;99.90;;;;;;5032263;28;20486;-64
2022/02/18 03:01:24;;;;;;;15.48;4.22;;;28.90;99.90;;;;;;5029425;28;20546;-65
2022/02/18 03:03:52;;;;;;;13.68;4.32;;;29.10;99.90;;;;;;5013204;28;20033;-64
2022/02/18 03:06:19;;;;;;;10.57;3.85;;;28.90;99.90;;;;;;5015333;28;20843;-64
2022/02/18 03:08:46;;;;;;;13.55;3.67;;;29.00;99.90;;;;;;5032624;28;20477;-64
2022/02/18 03:11:17;;;;;;;15.23;3.97;;;28.90;99.90;;;;;;5033122;28;20101;-64
2022/02/18 03:13:50;;;;;;;12.85;4.03;;;28.80;99.90;;;;;;5032833;28;20026;-64
2022/02/18 03:16:18;;;;;;;22.63;4.87;;;28.70;99.90;;;;;;5032228;28;20022;-65
2022/02/18 03:18:46;;;;;;;14.30;4.95;;;28.80;99.90;;;;;;5032756;28;20033;-64
2022/02/18 03:21:14;;;;;;;12.82;4.28;;;28.60;99.90;;;;;;5032308;28;20500;-64
2022/02/18 03:23:48;;;;;;;14.15;3.35;;;28.60;99.90;;;;;;5017998;28;20068;-64
2022/02/18 03:26:16;;;;;;;17.48;4.40;;;28.70;99.90;;;;;;5016238;28;20539;-65
2022/02/18 03:28:44;;;;;;;12.55;4.05;;;28.80;99.90;;;;;;5029755;28;20041;-65
2022/02/18 03:31:12;;;;;;;11.32;4.25;;;28.50;99.90;;;;;;5048066;28;20479;-64
2022/02/18 03:33:40;;;;;;;14.48;3.90;;;28.40;99.90;;;;;;5032261;28;20116;-64
2022/02/18 03:36:08;;;;;;;16.00;3.85;;;28.50;99.90;;;;;;5031295;28;20087;-65
2022/02/18 03:38:36;;;;;;;18.50;4.32;;;28.40;99.90;;;;;;5020608;28;20022;-64
2022/02/18 03:41:03;;;;;;;10.40;3.13;;;28.20;99.90;;;;;;5031774;28;20069;-65
2022/02/18 03:43:31;;;;;;;11.73;4.32;;;28.20;99.90;;;;;;5026369;28;20079;-64
2022/02/18 03:45:58;;;;;;;15.05;3.88;;;28.30;99.90;;;;;;5031791;28;20025;-65
2022/02/18 03:48:25;;;;;;;14.38;3.83;;;28.00;99.90;;;;;;5031988;28;20549;-64
2022/02/18 03:50:53;;;;;;;14.55;3.72;;;28.20;99.90;;;;;;5015113;28;20026;-65
2022/02/18 03:53:20;;;;;;;14.73;3.53;;;28.10;99.90;;;;;;5050577;28;20037;-64
2022/02/18 03:55:49;;;;;;;16.30;4.05;;;28.10;99.90;;;;;;5033818;28;20037;-64
2022/02/18 03:58:16;;;;;;;15.32;3.72;;;28.20;99.90;;;;;;5049743;28;20030;-64
2022/02/18 04:00:44;;;;;;;12.57;3.60;;;28.30;99.90;;;;;;5052096;28;20436;-64
2022/02/18 04:03:11;;;;;;;13.05;4.03;;;28.20;99.90;;;;;;5036224;28;20037;-65
2022/02/18 04:05:38;;;;;;;13.82;3.45;;;28.10;99.90;;;;;;5035708;28;20022;-65
2022/02/18 04:08:06;;;;;;;13.20;3.75;;;28.20;99.90;;;;;;5051492;28;20489;-65
2022/02/18 04:10:33;;;;;;;17.67;3.13;;;28.20;99.90;;;;;;5035451;28;20032;-65
2022/02/18 04:13:00;;;;;;;10.98;3.03;;;28.00;99.90;;;;;;5036121;28;20033;-64
2022/02/18 04:15:27;;;;;;;14.40;3.28;;;27.90;99.90;;;;;;5036134;28;20029;-64
2022/02/18 04:17:55;;;;;;;8.95;3.13;;;27.80;99.90;;;;;;5036668;28;20508;-64
2022/02/18 04:20:23;;;;;;;10.23;3.00;;;27.60;99.90;;;;;;5035365;28;20029;-64
2022/02/18 04:22:50;;;;;;;12.82;3.08;;;27.70;99.90;;;;;;5038173;28;20057;-64
2022/02/18 04:25:18;;;;;;;9.10;3.28;;;27.50;99.90;;;;;;5035405;28;20068;-64
2022/02/18 04:27:56;;;;;;;12.52;2.90;;;27.50;99.90;;;;;;5036152;28;20033;-64
2022/02/18 04:30:24;;;;;;;11.32;3.17;;;27.70;99.90;;;;;;5035956;28;20498;-64
2022/02/18 04:32:52;;;;;;;10.82;3.10;;;27.60;99.90;;;;;;5021606;28;20030;-64
2022/02/18 04:35:19;;;;;;;12.70;3.15;;;27.80;99.90;;;;;;5016025;28;20030;-64
2022/02/18 04:37:47;;;;;;;19.73;3.45;;;27.80;99.90;;;;;;5026614;28;20025;-64
2022/02/18 04:40:16;;;;;;;9.57;3.50;;;27.80;99.90;;;;;;5035397;28;20396;-64
2022/02/18 04:42:44;;;;;;;10.50;3.20;;;27.60;99.90;;;;;;5016522;28;20713;-64
2022/02/18 04:45:12;;;;;;;10.50;2.58;;;27.40;99.90;;;;;;5035569;28;20115;-64
2022/02/18 04:47:39;;;;;;;16.90;3.78;;;27.50;99.90;;;;;;5036512;28;20118;-65
2022/02/18 04:50:07;;;;;;;14.73;3.15;;;27.70;99.90;;;;;;5024337;28;20037;-64
2022/02/18 04:52:34;;;;;;;8.75;2.75;;;27.60;99.90;;;;;;5027783;28;20104;-64
2022/02/18 04:55:05;;;;;;;10.32;2.53;;;27.60;99.90;;;;;;5034139;28;20049;-64
2022/02/18 04:57:33;;;;;;;7.65;2.58;;;27.60;99.90;;;;;;5027847;28;20033;-64
2022/02/18 05:00:01;;;;;;;6.63;1.38;;;27.50;99.90;;;;;;5034797;28;20431;-64
2022/02/18 05:02:28;;;;;;;8.18;2.17;;;27.40;99.90;;;;;;5035543;28;20544;-64
2022/02/18 05:04:55;;;;;;;9.60;2.50;;;27.50;99.90;;;;;;5035100;28;20101;-64
2022/02/18 05:07:22;;;;;;;11.65;2.58;;;27.50;99.90;;;;;;5024269;28;20449;-64
2022/02/18 05:09:50;;;;;;;9.52;2.17;;;27.50;99.90;;;;;;5015325;28;20018;-64
2022/02/18 05:12:17;;;;;;;12.13;2.55;;;27.30;99.90;;;;;;5031404;28;20556;-64
2022/02/18 05:14:44;;;;;;;8.43;2.10;;;27.20;99.90;;;;;;5035025;28;20362;-64
2022/02/18 05:17:11;;;;;;;16.63;3.72;;;27.40;99.90;;;;;;5035151;28;20436;-64
2022/02/18 05:19:39;;;;;;;11.95;2.95;;;27.30;99.90;;;;;;5033975;28;20515;-64
2022/02/18 05:22:06;;;;;;;9.10;2.63;;;27.20;99.90;;;;;;5024957;28;20036;-65
2022/02/18 05:24:33;;;;;;;9.23;2.95;;;27.40;99.90;;;;;;5030170;28;20052;-64
2022/02/18 05:27:00;;;;;;;6.93;2.50;;;27.40;99.90;;;;;;5041731;28;20496;-64
2022/02/18 05:29:28;;;;;;;13.25;3.05;;;27.20;99.90;;;;;;5042125;28;20025;-64
2022/02/18 05:32:00;;;;;;;10.93;2.28;;;27.30;99.90;;;;;;5027998;28;20060;-64
2022/02/18 05:34:27;;;;;;;17.50;3.35;;;27.10;99.90;;;;;;5020876;28;20018;-64
2022/02/18 05:36:54;;;;;;;10.00;2.45;;;27.00;99.90;;;;;;5034934;28;20041;-64
2022/02/18 05:39:22;;;;;;;8.02;2.60;;;27.00;99.90;;;;;;5033656;28;20508;-64
2022/02/18 05:41:50;;;;;;;12.70;3.50;;;26.90;99.90;;;;;;5019684;28;20050;-64
2022/02/18 05:44:18;;;;;;;12.35;2.88;;;26.60;99.90;;;;;;5014723;28;20022;-64
2022/02/18 05:46:45;;;;;;;20.65;3.03;;;26.80;99.90;;;;;;5026408;28;20397;-64
2022/02/18 05:49:13;;;;;;;11.88;2.83;;;26.80;99.90;;;;;;5051362;28;20086;-64
2022/02/18 05:51:40;;;;;;;13.93;3.33;;;26.90;99.90;;;;;;5034057;28;20017;-64
2022/02/18 05:54:08;;;;;;;13.93;3.10;;;27.10;99.90;;;;;;5033369;28;20176;-65
2022/02/18 05:56:35;;;;;;;9.98;2.70;;;27.20;99.90;;;;;;5025200;28;20033;-64
2022/02/18 05:59:03;;;;;;;8.07;2.42;;;27.10;99.90;;;;;;5033944;28;20040;-64
2022/02/18 06:01:31;;;;;;;9.93;3.35;;;26.90;99.90;;;;;;5032977;28;20026;-64
2022/02/18 06:03:58;;;;;;;9.10;2.85;;;26.60;99.90;;;;;;5033981;28;20021;-64
2022/02/18 06:06:27;;;;;;;10.85;2.90;;;26.60;99.90;;;;;;5033765;28;20033;-64
2022/02/18 06:08:55;;;;;;;9.82;2.42;;;26.60;99.90;;;;;;5033881;28;20033;-64
2022/02/18 06:11:22;;;;;;;9.20;2.90;;;26.30;99.90;;;;;;5038177;28;20029;-64
2022/02/18 06:13:49;;;;;;;10.13;3.03;;;26.20;99.90;;;;;;5014131;28;20030;-64
2022/02/18 06:16:16;;;;;;;11.02;2.90;;;26.20;99.90;;;;;;5016629;28;20050;-64
2022/02/18 06:18:43;;;;;;;13.63;2.97;;;26.00;99.90;;;;;;5033541;28;20068;-64
2022/02/18 06:21:11;;;;;;;8.43;2.22;;;25.80;99.90;;;;;;5033288;28;20033;-64
2022/02/18 06:23:38;;;;;;;10.98;2.72;;;25.90;99.90;;;;;;5031973;28;20500;-64
2022/02/18 06:26:06;;;;;;;9.00;2.53;;;25.90;99.90;;;;;;5029969;28;20027;-64
2022/02/18 06:28:33;;;;;;;12.10;2.28;;;26.00;99.90;;;;;;5017324;28;20112;-65
2022/02/18 06:31:00;;;;;;;8.68;2.88;;;26.00;99.90;;;;;;5018062;28;20026;-64
2022/02/18 06:33:27;;;;;;;5.95;2.35;;;26.10;99.90;;;;;;5023893;28;20047;-64
2022/02/18 06:36:22;;;;;;;8.13;2.42;;;26.10;99.90;;;;;;5053422;28;20029;-64
2022/02/18 06:38:50;;;;;;;10.05;2.40;;;26.30;99.90;;;;;;5024425;28;20057;-64
2022/02/18 06:41:17;;;;;;;7.70;2.35;;;26.50;99.90;;;;;;5016105;28;20021;-64
2022/02/18 06:43:44;;;;;;;10.98;2.85;;;26.60;99.90;;;;;;5033295;28;20109;-64
2022/02/18 06:46:11;;;;;;;12.80;2.90;;;26.50;99.90;;;;;;5033422;28;20030;-64
2022/02/18 06:48:39;;;;;;;11.10;2.83;;;26.50;99.90;;;;;;5032852;28;20033;-64
2022/02/18 06:51:06;;;;;;;10.50;2.80;;;26.30;99.90;;;;;;5014409;28;20032;-64
2022/02/18 06:53:34;;;;;;;10.43;2.80;;;26.20;99.90;;;;;;5032582;28;20025;-64
2022/02/18 06:56:01;;;;;;;10.25;2.70;;;26.20;99.90;;;;;;5031814;28;20078;-64
2022/02/18 06:58:29;;;;;;;11.75;3.10;;;26.10;99.90;;;;;;5041910;28;20037;-64
2022/02/18 07:00:56;;;;;;;13.25;3.53;;;25.80;99.90;;;;;;5032607;28;20112;-64
2022/02/18 07:03:24;;;;;;;13.48;3.05;;;25.70;99.90;;;;;;5032423;28;20034;-64
2022/02/18 07:05:51;;;;;;;8.55;3.10;;;25.60;99.90;;;;;;5032945;28;20017;-64
2022/02/18 07:08:21;;;;;;;10.68;2.95;;;25.60;99.90;;;;;;5033428;28;20037;-64
2022/02/18 07:10:49;;;;;;;9.88;2.95;;;25.50;99.90;;;;;;5029058;28;20470;-64
2022/02/18 07:13:16;;;;;;;13.85;2.55;;;25.40;99.90;;;;;;5013322;28;20145;-64
2022/02/18 07:15:43;;;;;;;13.45;3.42;;;25.50;99.90;;;;;;5032865;28;20481;-64
2022/02/18 07:18:11;;;;;;;9.52;2.85;;;25.40;99.90;;;;;;5025363;28;20075;-63
2022/02/18 07:20:38;;;;;;;18.23;3.72;;;25.60;99.90;;;;;;5017575;28;20441;-64
2022/02/18 07:23:07;;;;;;;9.13;3.00;;;25.60;99.90;;;;;;5028532;28;20021;-64
2022/02/18 07:25:36;;;;;;;11.43;3.13;;;25.60;99.90;;;;;;5020058;28;20121;-64
2022/02/18 07:28:03;;;;;;;14.35;3.67;;;25.60;99.90;;;;;;5028674;28;20021;-64
2022/02/18 07:30:30;;;;;;;12.85;3.15;;;25.60;99.90;;;;;;5028184;28;20041;-64
2022/02/18 07:32:58;;;;;;;17.35;4.50;;;25.50;99.90;;;;;;5031010;28;20080;-64
2022/02/18 07:35:32;;;;;;;15.05;3.83;;;25.40;99.90;;;;;;5040056;28;20025;-64
2022/02/18 07:38:03;;;;;;;15.32;4.10;;;25.40;99.90;;;;;;5021162;28;20057;-63
2022/02/18 07:40:30;;;;;;;13.40;3.63;;;25.40;99.90;;;;;;5012801;28;20085;-63
2022/02/18 07:42:57;;;;;;;15.55;3.85;;;25.40;99.90;;;;;;5029157;28;20112;-63
2022/02/18 07:45:25;;;;;;;12.88;4.03;;;25.40;99.90;;;;;;5032534;28;20034;-64
2022/02/18 07:47:58;;;;;;;14.10;3.75;;;25.40;99.90;;;;;;5046427;28;20029;-64
2022/02/18 07:50:25;;;;;;;;;;;25.40;99.90;;;;;;5052474;28;20080;-64
2022/02/18 07:52:53;;;;;;;11.45;3.95;;;25.40;99.90;;;;;;5035154;28;19909;-64
2022/02/18 07:55:21;;;;;;;15.55;4.50;;;25.40;99.90;;;;;;5019309;28;20053;-64
2022/02/18 07:57:49;;;;;;;18.33;4.40;;;25.40;99.90;;;;;;5046002;28;20065;-63
2022/02/18 08:00:16;;;;;;;11.82;3.40;;;25.40;99.90;;;;;;5039303;28;20113;-63
2022/02/18 08:02:44;;;;;;;14.38;4.35;;;25.40;99.90;;;;;;5027053;28;20037;-64
2022/02/18 08:05:11;;;;;;;15.07;4.10;;;25.40;99.90;;;;;;5014338;28;20042;-64
2022/02/18 08:07:39;;;;;;;18.05;4.25;;;25.40;99.90;;;;;;5025178;28;20079;-64
2022/02/18 08:10:07;;;;;;;16.95;4.72;;;25.40;99.90;;;;;;5032139;28;20084;-64
2022/02/18 08:12:34;;;;;;;21.95;6.50;;;25.30;99.90;;;;;;5031437;28;20087;-64
2022/02/18 08:15:01;;;;;;;21.17;5.72;;;25.30;99.90;;;;;;5029867;28;20070;-64
2022/02/18 08:17:38;;;;;;;15.32;4.50;;;25.30;99.90;;;;;;5031331;28;20112;-64
2022/02/18 08:20:08;;;;;;;13.20;3.88;;;25.20;99.90;;;;;;5031796;28;20069;-64
2022/02/18 08:22:35;;;;;;;16.17;4.65;;;25.00;99.90;;;;;;5021874;28;20056;-64
2022/02/18 08:25:03;;;;;;;19.40;4.32;;;24.90;99.90;;;;;;5034066;28;20102;-64
2022/02/18 08:27:30;;;;;;;18.05;6.30;;;24.80;99.90;;;;;;5019816;28;20046;-64
2022/02/18 08:29:58;;;;;;;31.33;15.85;;;24.80;99.90;;;;;;5012211;28;20022;-64
2022/02/18 08:32:25;;;;;;;18.48;5.90;;;24.80;99.90;;;;;;5024385;28;20028;-63
2022/02/18 08:34:52;;;;;;;21.88;5.65;;;24.90;99.90;;;;;;5032039;28;20036;-64
2022/02/18 08:37:19;;;;;;;15.65;4.60;;;24.80;99.90;;;;;;5031942;28;20108;-64
2022/02/18 08:39:47;;;;;;;15.20;4.28;;;24.90;99.90;;;;;;5032019;28;20136;-64
2022/02/18 08:42:14;;;;;;;18.38;3.78;;;24.90;99.90;;;;;;5031235;28;20481;-64
2022/02/18 08:44:41;;;;;;;16.10;4.03;;;24.80;99.90;;;;;;5023949;28;20029;-64
2022/02/18 08:47:09;;;;;;;13.68;3.90;;;24.80;99.90;;;;;;5031852;28;20393;-64
2022/02/18 08:49:40;;;;;;;15.02;3.85;;;24.80;99.90;;;;;;5055335;28;20029;-64
2022/02/18 08:52:11;;;;;;;13.20;4.43;;;24.70;99.90;;;;;;5045336;28;20408;-64
2022/02/18 08:54:39;;;;;;;11.35;3.78;;;24.60;99.90;;;;;;5034884;28;20565;-64
2022/02/18 08:57:06;;;;;;;17.63;4.20;;;24.60;99.90;;;;;;5035482;28;20499;-64
2022/02/18 08:59:33;;;;;;;12.50;3.17;;;24.50;99.90;;;;;;5035436;28;20109;-63
2022/02/18 09:02:03;;;;;;;13.43;3.05;;;24.40;99.90;;;;;;5027843;28;20053;-64
2022/02/18 09:04:31;;;;;;;17.52;3.45;;;24.30;99.90;;;;;;5015573;28;20026;-63
2022/02/18 09:06:58;;;;;;;14.93;2.92;;;24.40;99.90;;;;;;5016973;28;20072;-63
2022/02/18 09:09:25;;;;;;;15.35;3.22;;;24.30;99.90;;;;;;5030412;28;20107;-63
2022/02/18 09:11:53;;;;;;;16.48;3.40;;;24.30;99.90;;;;;;5036150;28;20032;-63
2022/02/18 09:14:20;;;;;;;13.48;3.20;;;24.30;99.90;;;;;;5035458;28;20052;-63
2022/02/18 09:16:47;;;;;;;14.13;4.07;;;24.20;99.90;;;;;;5035357;28;20071;-63
2022/02/18 09:19:15;;;;;;;8.05;2.83;;;24.30;99.90;;;;;;5034594;28;20029;-64
2022/02/18 09:21:42;;;;;;;10.63;3.72;;;24.20;99.90;;;;;;5034627;28;20030;-63
2022/02/18 09:24:09;;;;;;;12.27;3.97;;;24.20;99.90;;;;;;5034707;28;20053;-63
2022/02/18 09:26:36;;;;;;;14.40;3.92;;;24.20;99.90;;;;;;5038479;28;20021;-63
2022/02/18 09:29:04;;;;;;;12.90;3.85;;;24.20;99.90;;;;;;5054770;28;20024;-63
2022/02/18 09:31:31;;;;;;;14.85;4.93;;;24.10;99.90;;;;;;5040940;28;20030;-63
2022/02/18 09:34:00;;;;;;;18.67;5.57;;;23.90;99.90;;;;;;5021787;28;20500;-63
2022/02/18 09:36:28;;;;;;;18.17;5.53;;;23.80;99.90;;;;;;5027554;28;20112;-63
2022/02/18 09:38:55;;;;;;;20.38;5.85;;;23.70;99.90;;;;;;5034357;28;20036;-63
2022/02/18 09:41:23;;;;;;;17.20;6.20;;;23.70;99.90;;;;;;5019383;28;20474;-65
2022/02/18 09:43:52;;;;;;;17.42;5.82;;;23.70;99.90;;;;;;5020575;28;20029;-63
2022/02/18 09:46:24;;;;;;;14.32;5.10;;;23.70;99.90;;;;;;5034405;28;20039;-63
2022/02/18 09:48:52;;;;;;;17.85;5.85;;;23.70;99.90;;;;;;5033660;28;20030;-63
2022/02/18 09:51:20;;;;;;;19.13;5.28;;;23.70;99.90;;;;;;5032482;28;21353;-63
2022/02/18 09:53:49;;;;;;;14.98;5.70;;;23.70;99.90;;;;;;5034089;28;20382;-63
2022/02/18 09:56:19;;;;;;;15.98;5.28;;;23.80;99.90;;;;;;5034721;28;20476;-63
2022/02/18 09:58:46;;;;;;;16.33;5.97;;;23.70;99.90;;;;;;5033282;28;20035;-63
2022/02/18 10:01:15;;;;;;;13.95;4.75;;;23.80;99.90;;;;;;5051199;28;20039;-63
2022/02/18 10:03:42;;;;;;;12.90;4.75;;;23.80;99.90;;;;;;5016365;28;20029;-63
2022/02/18 10:06:09;;;;;;;13.40;5.43;;;23.80;99.90;;;;;;5032952;28;20022;-63
2022/02/18 10:08:51;;;;;;;13.55;4.72;;;23.80;99.90;;;;;;5014182;28;20068;-63
2022/02/18 10:11:19;;;;;;;14.23;4.30;;;23.80;99.90;;;;;;5018323;28;20026;-63
2022/02/18 10:13:47;;;;;;;17.67;4.60;;;23.80;99.90;;;;;;5053722;28;20086;-64
2022/02/18 10:16:23;;;;;;;19.98;5.63;;;23.70;99.90;;;;;;5052172;28;20416;-63
2022/02/18 10:19:10;;;;;;;29.70;7.00;;;23.70;99.90;;;;;;5032997;28;20064;-63
2022/02/18 10:21:44;;;;;;;21.75;6.75;;;23.60;99.90;;;;;;5032931;28;20417;-63
2022/02/18 10:24:22;;;;;;;28.20;8.85;;;23.50;99.90;;;;;;5033647;28;20104;-63
2022/02/18 10:26:54;;;;;;;30.83;6.88;;;23.40;99.90;;;;;;5026473;28;20034;-64
2022/02/18 10:29:25;;;;;;;26.40;6.45;;;23.30;99.90;;;;;;5013975;28;20383;-63
2022/02/18 10:32:11;;;;;;;28.83;6.65;;;23.40;99.90;;;;;;5027205;28;20017;-64
2022/02/18 10:35:04;;;;;;;28.67;7.05;;;23.30;99.90;;;;;;5050681;28;20033;-63
2022/02/18 10:37:33;;;;;;;25.33;6.35;;;23.40;99.90;;;;;;5010628;28;20044;-64
2022/02/18 10:40:10;;;;;;;26.27;7.07;;;23.40;99.90;;;;;;5033255;28;20520;-64
2022/02/18 10:42:38;;;;;;;29.77;6.68;;;23.40;99.90;;;;;;5032326;28;20048;-64
2022/02/18 10:45:09;;;;;;;26.23;6.30;;;23.30;99.90;;;;;;5033287;28;20057;-64
2022/02/18 10:47:36;;;;;;;25.38;6.75;;;23.30;99.90;;;;;;5045757;28;20040;-64
2022/02/18 10:50:17;;;;;;;38.65;7.15;;;23.10;99.90;;;;;;5046578;28;20091;-63
2022/02/18 10:53:04;;;;;;;22.80;5.45;;;23.10;99.90;;;;;;5014978;28;20076;-64
2022/02/18 10:55:51;;;;;;;24.42;6.35;;;23.10;99.90;;;;;;5032241;28;20053;-64
2022/02/18 10:58:26;;;;;;;24.40;5.97;;;23.10;99.90;;;;;;5032665;28;20436;-63
2022/02/18 11:01:17;;;;;;;18.20;5.93;;;23.10;99.90;;;;;;5032979;28;20066;-63
2022/02/18 11:03:46;;;;;;;24.88;6.93;;;23.10;99.90;;;;;;5013800;28;20071;-63
2022/02/18 11:06:22;;;;;;;23.65;6.10;;;23.10;99.90;;;;;;5015348;28;20362;-64
2022/02/18 11:08:53;;;;;;;26.45;6.10;;;23.10;99.90;;;;;;5033006;28;20029;-63
2022/02/18 11:11:24;;;;;;;29.75;5.32;;;23.10;99.90;;;;;;5033984;28;20025;-63
2022/02/18 11:13:52;;;;;;;21.38;5.43;;;23.10;99.90;;;;;;5052461;28;20032;-63
2022/02/18 11:16:21;;;;;;;22.38;5.80;;;23.00;99.90;;;;;;5032308;28;20029;-63
2022/02/18 11:18:51;;;;;;;20.55;5.15;;;23.00;99.90;;;;;;5044256;28;20056;-63
2022/02/18 11:21:18;;;;;;;19.80;5.32;;;23.00;99.90;;;;;;5047514;28;20503;-63
2022/02/18 11:23:48;;;;;;;22.33;6.30;;;23.00;99.90;;;;;;5012944;28;20034;-63
2022/02/18 11:26:18;;;;;;;24.70;6.07;;;23.00;99.90;;;;;;5026420;28;20052;-63
2022/02/18 11:28:46;;;;;;;24.00;5.32;;;23.00;99.90;;;;;;5031726;28;20021;-63
2022/02/18 11:31:21;;;;;;;24.20;5.63;;;23.00;99.90;;;;;;5004350;28;20493;-63
2022/02/18 11:34:11;;;;;;;19.77;5.32;;;23.00;99.90;;;;;;5013146;28;20026;-63
2022/02/18 11:37:03;;;;;;;25.88;5.88;;;22.90;99.90;;;;;;5018305;28;20116;-63
2022/02/18 11:39:35;;;;;;;25.10;5.22;;;22.90;99.90;;;;;;5032159;28;20102;-63
2022/02/18 11:42:09;;;;;;;19.45;4.75;;;22.90;99.90;;;;;;5033204;28;20580;-63
2022/02/18 11:44:37;;;;;;;20.50;5.35;;;22.90;99.90;;;;;;5032074;28;20033;-64
2022/02/18 11:47:19;;;;;;;19.83;5.55;;;22.90;99.90;;;;;;5015124;28;20034;-63
2022/02/18 11:49:49;;;;;;;30.98;6.10;;;22.90;99.90;;;;;;5032198;28;20029;-63
2022/02/18 11:52:19;;;;;;;21.30;5.20;;;22.70;99.90;;;;;;5006091;28;20034;-63
2022/02/18 11:54:47;;;;;;;24.17;5.63;;;22.70;99.90;;;;;;5012386;28;20054;-64
2022/02/18 11:57:19;;;;;;;17.60;4.50;;;22.60;99.90;;;;;;5025130;28;20021;-63
2022/02/18 12:00:05;;;;;;;20.02;5.43;;;22.70;99.90;;;;;;5046624;28;20033;-63
2022/02/18 12:02:38;;;;;;;17.88;4.72;;;22.70;99.90;;;;;;5013059;28;20033;-63
2022/02/18 12:05:09;;;;;;;23.48;4.63;;;22.70;99.90;;;;;;5044348;28;20029;-63
2022/02/18 12:07:46;;;;;;;20.33;3.90;;;22.70;99.90;;;;;;5020106;28;20092;-64
2022/02/18 12:10:25;;;;;;;22.25;4.45;;;22.80;99.90;;;;;;5027727;28;20025;-64
2022/02/18 12:13:08;;;;;;;17.90;4.25;;;22.70;99.90;;;;;;5027855;28;20025;-64
2022/02/18 12:15:38;;;;;;;22.25;3.78;;;22.80;99.90;;;;;;5031815;28;20025;-64
2022/02/18 12:18:11;;;;;;;16.92;4.22;;;22.80;99.90;;;;;;5030908;28;20061;-64
2022/02/18 12:20:44;;;;;;;18.67;4.67;;;22.70;99.90;;;;;;5031942;28;20037;-64
2022/02/18 12:23:21;;;;;;;22.20;3.95;;;22.80;99.90;;;;;;5046573;28;20052;-64
2022/02/18 12:25:49;;;;;;;22.50;4.72;;;22.80;99.90;;;;;;5020210;28;20029;-63
2022/02/18 12:28:22;;;;;;;23.00;4.13;;;22.70;99.90;;;;;;5046176;28;20036;-63
2022/02/18 12:31:09;;;;;;;14.95;4.43;;;22.80;99.90;;;;;;5055551;28;20025;-63
2022/02/18 12:33:38;;;;;;;23.27;4.05;;;22.80;99.90;;;;;;5031279;28;20021;-63
2022/02/18 12:36:11;;;;;;;22.17;5.07;;;22.70;99.90;;;;;;5038212;28;20033;-64
2022/02/18 12:38:49;;;;;;;19.20;4.22;;;22.70;99.90;;;;;;5019108;28;20033;-64
2022/02/18 12:41:19;;;;;;;19.73;5.28;;;22.70;99.90;;;;;;5035845;28;20032;-64
2022/02/18 12:43:47;;;;;;;19.90;3.67;;;22.70;99.90;;;;;;5033157;28;20014;-64
2022/02/18 12:46:16;;;;;;;14.98;3.95;;;22.70;99.90;;;;;;5036037;28;20021;-64
2022/02/18 12:48:47;;;;;;;12.95;3.70;;;22.70;99.90;;;;;;5042797;28;20030;-63